Time;durP1;ratioP1;P1;durP2;ratioP2;P2;SDS_P1;SDS_P2;PMS_P1;PMS_P2;Temp;Humidity;BMP_temperature;BMP_pressure;BME280_temperature;BME280_humidity;BME280_pressure;Samples;Min_cycle;Max_cycle;Signal;HPM_P1;HPM_P2
2022/10/01 00:02:07;;;;;;;5.57;4.95;;;;;;;10.88;100.00;100270.91;4890169;29;20049;-80
2022/10/01 00:04:36;;;;;;;6.68;5.28;;;;;;;10.85;100.00;100273.59;4850860;29;20044;-79
2022/10/01 00:07:08;;;;;;;11.55;6.13;;;;;;;10.81;100.00;100263.97;4893076;29;20056;-79
2022/10/01 00:09:37;;;;;;;5.90;5.32;;;;;;;10.78;100.00;100250.78;4881873;29;20059;-79
2022/10/01 00:12:07;;;;;;;5.82;5.35;;;;;;;10.75;100.00;100245.53;4906775;29;20087;-79
2022/10/01 00:14:38;;;;;;;7.15;5.72;;;;;;;10.72;100.00;100249.06;4892109;29;20056;-79
2022/10/01 00:17:06;;;;;;;6.72;6.13;;;;;;;10.70;100.00;100231.53;4907916;29;20048;-79
2022/10/01 00:19:34;;;;;;;7.03;5.57;;;;;;;10.69;100.00;100227.13;4865510;29;20419;-79
2022/10/01 00:22:03;;;;;;;7.65;6.03;;;;;;;10.66;100.00;100228.03;4851695;29;20060;-80
2022/10/01 00:24:31;;;;;;;6.75;6.20;;;;;;;10.65;100.00;100217.50;4878827;29;20040;-79
2022/10/01 00:26:59;;;;;;;7.25;6.35;;;;;;;10.64;100.00;100210.47;4895512;29;20409;-80
2022/10/01 00:29:29;;;;;;;8.18;6.80;;;;;;;10.62;100.00;100193.81;4888841;29;20266;-79
2022/10/01 00:31:58;;;;;;;6.95;6.35;;;;;;;10.61;100.00;100190.31;4902948;29;20067;-80
2022/10/01 00:34:27;;;;;;;8.57;6.47;;;;;;;10.59;100.00;100192.09;4881030;29;20060;-79
2022/10/01 00:36:55;;;;;;;11.27;7.18;;;;;;;10.58;100.00;100185.03;4848821;29;20055;-79
2022/10/01 00:39:24;;;;;;;10.02;6.80;;;;;;;10.56;100.00;100186.81;4909015;29;20058;-79
2022/10/01 00:41:52;;;;;;;10.55;6.63;;;;;;;10.53;100.00;100166.66;4880136;29;20067;-80
2022/10/01 00:44:32;;;;;;;9.63;8.38;;;;;;;10.53;100.00;100158.75;4885044;29;20251;-80
2022/10/01 00:47:06;;;;;;;9.02;7.68;;;;;;;10.51;100.00;100146.50;4893926;29;20064;-80
2022/10/01 00:49:38;;;;;;;8.10;7.28;;;;;;;10.50;100.00;100150.00;4893367;29;20048;-79
2022/10/01 00:52:12;;;;;;;9.55;8.57;;;;;;;10.50;100.00;100147.34;4863269;29;20052;-80
2022/10/01 00:54:49;;;;;;;8.90;8.02;;;;;;;10.48;100.00;100135.97;4910046;29;20059;-79
2022/10/01 00:57:23;;;;;;;9.57;8.55;;;;;;;10.48;100.00;100130.69;4889317;29;20357;-80
2022/10/01 00:59:55;;;;;;;10.35;8.85;;;;;;;10.46;100.00;100128.06;4900359;29;20056;-79
2022/10/01 01:02:24;;;;;;;9.38;8.57;;;;;;;10.44;100.00;100118.44;4891515;29;20079;-79
2022/10/01 01:04:52;;;;;;;11.70;9.35;;;;;;;10.43;100.00;100127.22;4850646;29;20056;-79
2022/10/01 01:07:25;;;;;;;9.50;8.60;;;;;;;10.42;100.00;100114.94;4848638;29;20048;-79
2022/10/01 01:09:55;;;;;;;9.60;8.40;;;;;;;10.42;100.00;100120.22;4877744;29;20044;-80
2022/10/01 01:12:49;;;;;;;10.52;9.43;;;;;;;10.43;100.00;100111.41;4891019;29;20666;-80
2022/10/01 01:15:27;;;;;;;11.43;10.15;;;;;;;10.42;100.00;100104.41;4861000;29;20051;-80
2022/10/01 01:18:21;;;;;;;11.25;10.05;;;;;;;10.42;100.00;100109.69;4902500;29;20056;-80
2022/10/01 01:21:12;;;;;;;13.48;12.10;;;;;;;10.40;100.00;100111.47;4910999;29;20048;-79
2022/10/01 01:24:06;;;;;;;15.18;13.23;;;;;;;10.38;100.00;100103.56;4880635;29;20059;-79
2022/10/01 01:27:07;;;;;;;12.93;11.63;;;;;;;10.37;100.00;100086.00;4878948;29;20063;-80
2022/10/01 01:29:38;;;;;;;13.23;11.73;;;;;;;10.37;100.00;100091.25;4900533;29;20055;-78
2022/10/01 01:32:13;;;;;;;14.05;12.43;;;;;;;10.37;100.00;100074.59;4892022;29;20063;-79
2022/10/01 01:34:47;;;;;;;14.15;11.75;;;;;;;10.36;100.00;100068.47;4911495;29;20071;-79
2022/10/01 01:37:20;;;;;;;13.88;11.98;;;;;;;10.33;100.00;100071.97;4890216;29;20071;-78
2022/10/01 01:39:52;;;;;;;18.33;13.57;;;;;;;10.33;100.00;100069.34;4879996;29;20521;-79
2022/10/01 01:42:28;;;;;;;21.10;14.15;;;;;;;10.33;100.00;100048.28;4906836;29;20541;-78
2022/10/01 01:44:59;;;;;;;15.30;13.70;;;;;;;10.33;100.00;100048.28;4881109;29;20533;-79
2022/10/01 01:47:31;;;;;;;18.00;13.43;;;;;;;10.32;100.00;100049.19;4887953;29;20418;-79
2022/10/01 01:50:04;;;;;;;14.73;13.15;;;;;;;10.32;100.00;100027.22;4910515;29;20052;-79
2022/10/01 01:52:33;;;;;;;14.23;12.52;;;;;;;10.31;100.00;100015.81;4911131;29;20044;-79
2022/10/01 01:55:06;;;;;;;15.32;13.10;;;;;;;10.32;100.00;100019.31;4861021;29;20536;-79
2022/10/01 01:57:43;;;;;;;16.40;14.15;;;;;;;10.31;100.00;100002.66;4891787;29;20051;-80
2022/10/01 02:00:12;;;;;;;19.40;15.55;;;;;;;10.31;100.00;100009.69;4874407;29;20055;-79
2022/10/01 02:02:47;;;;;;;20.73;14.43;;;;;;;10.29;100.00;100000.91;4869826;29;20048;-79
2022/10/01 02:05:34;;;;;;;14.98;13.48;;;;;;;10.27;100.00;99995.63;4901799;29;20063;-78
2022/10/01 02:08:54;;;;;;;17.42;13.48;;;;;;;10.27;100.00;99985.09;4891968;29;20048;-79
2022/10/01 02:11:27;;;;;;;11.77;10.48;;;;;;;10.27;100.00;99984.25;4829743;29;20040;-78
2022/10/01 02:14:27;;;;;;;14.35;10.82;;;;;;;10.26;100.00;99961.41;4892999;29;20063;-79
2022/10/01 02:17:09;;;;;;;10.68;9.38;;;;;;;10.25;100.00;99957.91;4889989;29;20644;-80
2022/10/01 02:19:48;;;;;;;12.85;9.43;;;;;;;10.23;100.00;99967.59;4875986;29;20052;-79
2022/10/01 02:22:25;;;;;;;17.98;9.23;;;;;;;10.24;100.00;99965.81;4889621;29;20063;-80
2022/10/01 02:24:58;;;;;;;10.15;9.07;;;;;;;10.24;100.00;99969.31;4869402;29;20047;-81
2022/10/01 02:27:54;;;;;;;14.10;9.68;;;;;;;10.24;100.00;99948.25;4890736;29;20219;-79
2022/10/01 02:30:23;;;;;;;10.23;8.70;;;;;;;10.25;100.00;99943.88;4890113;29;20373;-78
2022/10/01 02:32:55;;;;;;;10.80;9.70;;;;;;;10.24;100.00;99945.63;4904329;29;20059;-78
2022/10/01 02:35:27;;;;;;;13.18;10.15;;;;;;;10.22;100.00;99931.59;4890887;29;20537;-79
2022/10/01 02:37:58;;;;;;;11.82;10.07;;;;;;;10.21;100.00;99943.03;4893987;29;20048;-80
2022/10/01 02:40:29;;;;;;;;;;;;;;;10.21;100.00;99931.63;4846851;29;20059;-78
2022/10/01 02:43:07;;;;;;;14.95;12.35;;;;;;;10.20;100.00;99929.88;4892832;29;19923;-80
2022/10/01 02:45:39;;;;;;;17.30;12.15;;;;;;;10.19;100.00;99928.13;4876251;29;20044;-79
2022/10/01 02:48:10;;;;;;;18.98;13.38;;;;;;;10.18;100.00;99924.63;4902288;29;20051;-78
2022/10/01 02:51:00;;;;;;;17.40;12.73;;;;;;;10.18;100.00;99926.41;4880625;29;20062;-79
2022/10/01 02:53:46;;;;;;;15.52;12.05;;;;;;;10.18;100.00;99921.13;4887421;29;20045;-79
2022/10/01 02:57:21;;;;;;;13.68;11.40;;;;;;;10.19;100.00;99914.97;4859225;29;20684;-79
2022/10/01 02:59:07;;;;;;;13.13;10.30;;;;;;;10.19;100.00;99917.59;4905613;29;20043;-79
2022/10/01 03:01:36;;;;;;;13.55;11.40;;;;;;;10.18;100.00;99922.00;4887731;29;20179;-80
2022/10/01 03:04:05;;;;;;;11.00;9.23;;;;;;;10.18;100.00;99898.31;4870952;29;20055;-79
2022/10/01 03:06:34;;;;;;;9.98;8.95;;;;;;;10.17;100.00;99893.94;4874130;29;20052;-80
2022/10/01 03:09:03;;;;;;;11.97;9.70;;;;;;;10.15;100.00;99880.78;4892436;29;20040;-78
2022/10/01 03:11:34;;;;;;;13.07;11.50;;;;;;;10.16;100.00;99876.38;4878236;29;20409;-79
2022/10/01 03:14:03;;;;;;;12.00;10.80;;;;;;;10.16;100.00;99863.22;4893613;29;20463;-78
2022/10/01 03:16:32;;;;;;;11.15;10.15;;;;;;;10.17;100.00;99862.34;4873189;29;20414;-81
2022/10/01 03:19:00;;;;;;;13.52;10.65;;;;;;;10.18;100.00;99855.31;4877910;29;20067;-79
2022/10/01 03:21:28;;;;;;;13.55;11.27;;;;;;;10.19;100.00;99847.41;4869741;29;20493;-79
2022/10/01 03:23:57;;;;;;;12.43;10.77;;;;;;;10.19;100.00;99849.16;4892491;29;20052;-79
2022/10/01 03:26:26;;;;;;;12.07;10.73;;;;;;;10.22;100.00;99843.84;4863791;29;20044;-80
2022/10/01 03:28:55;;;;;;;14.07;12.20;;;;;;;10.21;100.00;99834.19;4891682;29;20083;-78
2022/10/01 03:31:24;;;;;;;14.55;11.50;;;;;;;10.21;100.00;99840.38;4908454;29;20418;-78
2022/10/01 03:33:57;;;;;;;16.33;11.30;;;;;;;10.20;100.00;99825.44;4890324;29;20245;-80
2022/10/01 03:36:26;;;;;;;11.15;9.85;;;;;;;10.22;100.00;99820.16;4901189;29;20410;-78
2022/10/01 03:38:55;;;;;;;11.43;9.45;;;;;;;10.23;100.00;99824.56;4890750;29;20388;-78
2022/10/01 03:41:23;;;;;;;9.65;8.38;;;;;;;10.22;100.00;99818.41;4860896;29;20510;-79
2022/10/01 03:43:52;;;;;;;8.25;7.35;;;;;;;10.23;100.00;99811.38;4909642;29;20064;-77
2022/10/01 03:46:30;;;;;;;9.25;6.95;;;;;;;10.23;100.00;99808.75;4900991;29;20052;-78
2022/10/01 03:48:59;;;;;;;7.45;6.85;;;;;;;10.24;100.00;99799.94;4891806;29;20406;-77
2022/10/01 03:51:30;;;;;;;9.13;6.72;;;;;;;10.24;100.00;99790.28;4862657;29;20056;-79
2022/10/01 03:53:58;;;;;;;8.52;6.90;;;;;;;10.25;100.00;99789.41;4888051;29;20505;-78
2022/10/01 03:56:27;;;;;;;7.65;6.00;;;;;;;10.27;100.00;99784.13;4892808;29;20063;-79
2022/10/01 03:58:55;;;;;;;7.43;6.68;;;;;;;10.27;100.00;99790.25;4885356;29;20067;-79
2022/10/01 04:01:24;;;;;;;8.18;6.13;;;;;;;10.28;100.00;99785.84;4892451;29;20064;-78
2022/10/01 04:03:53;;;;;;;7.60;5.88;;;;;;;10.29;100.00;99784.97;4890070;29;20063;-79
2022/10/01 04:06:21;;;;;;;6.18;5.57;;;;;;;10.31;100.00;99777.97;4887668;29;20145;-79
2022/10/01 04:08:51;;;;;;;6.07;5.47;;;;;;;10.31;100.00;99770.91;4891116;29;20044;-79
2022/10/01 04:11:20;;;;;;;4.72;4.43;;;;;;;10.32;100.00;99766.50;4910016;29;20319;-79
2022/10/01 04:13:49;;;;;;;4.82;4.43;;;;;;;10.33;100.00;99763.00;4865185;29;20048;-79
2022/10/01 04:16:18;;;;;;;4.50;4.10;;;;;;;10.34;100.00;99762.13;4874372;29;20045;-78
2022/10/01 04:18:46;;;;;;;5.18;3.90;;;;;;;10.35;100.00;99758.59;4881153;29;20047;-80
2022/10/01 04:21:15;;;;;;;5.85;4.35;;;;;;;10.38;100.00;99760.31;4902676;29;20051;-78
2022/10/01 04:23:43;;;;;;;4.60;3.90;;;;;;;10.38;100.00;99755.94;4891245;29;20036;-79
2022/10/01 04:26:12;;;;;;;5.82;4.30;;;;;;;10.41;100.00;99765.53;4909262;29;20267;-79
2022/10/01 04:28:40;;;;;;;3.95;3.55;;;;;;;10.41;100.00;99758.50;4862810;29;20045;-78
2022/10/01 04:31:23;;;;;;;4.00;3.70;;;;;;;10.42;100.00;99768.16;4891131;29;20047;-80
2022/10/01 04:33:55;;;;;;;3.50;3.00;;;;;;;10.42;100.00;99765.53;4895090;29;20059;-80
2022/10/01 04:36:24;;;;;;;3.25;3.00;;;;;;;10.42;100.00;99760.25;4891955;29;20055;-79
2022/10/01 04:38:54;;;;;;;2.90;2.70;;;;;;;10.43;100.00;99755.84;4868845;29;20410;-79
2022/10/01 04:41:30;;;;;;;6.75;2.80;;;;;;;10.44;100.00;99757.59;4879718;29;20048;-78
2022/10/01 04:44:02;;;;;;;3.13;2.92;;;;;;;10.44;100.00;99763.72;4857077;29;20053;-79
2022/10/01 04:46:31;;;;;;;3.13;2.83;;;;;;;10.46;100.00;99759.31;4892597;29;20048;-78
2022/10/01 04:48:59;;;;;;;2.83;2.63;;;;;;;10.45;100.00;99756.69;4878036;29;20059;-79
2022/10/01 04:51:28;;;;;;;3.35;3.05;;;;;;;10.47;100.00;99754.91;4895802;29;20036;-79
2022/10/01 04:53:56;;;;;;;2.92;2.72;;;;;;;10.48;100.00;99762.78;4866926;29;20047;-80
2022/10/01 04:56:25;;;;;;;2.60;2.40;;;;;;;10.49;100.00;99772.44;4865921;29;20184;-79
2022/10/01 04:58:53;;;;;;;2.67;2.47;;;;;;;10.51;100.00;99762.75;4904306;29;20044;-79
2022/10/01 05:01:21;;;;;;;2.80;2.60;;;;;;;10.51;100.00;99751.38;4890919;29;20433;-78
2022/10/01 05:03:50;;;;;;;2.80;2.60;;;;;;;10.51;100.00;99762.75;4895020;29;20055;-79
2022/10/01 05:06:19;;;;;;;2.45;2.25;;;;;;;10.53;100.00;99758.34;4873069;29;20056;-79
2022/10/01 05:08:48;;;;;;;2.40;2.20;;;;;;;10.54;100.00;99765.34;4855652;29;20048;-78
2022/10/01 05:11:17;;;;;;;3.40;2.60;;;;;;;10.55;100.00;99760.97;4881603;29;20041;-79
2022/10/01 05:13:45;;;;;;;2.92;2.30;;;;;;;10.57;100.00;99768.81;4895083;29;20040;-78
2022/10/01 05:16:14;;;;;;;2.78;2.50;;;;;;;10.58;100.00;99753.00;4842908;29;20044;-78
2022/10/01 05:18:42;;;;;;;3.20;2.90;;;;;;;10.60;100.00;99763.50;4854488;29;20048;-78
2022/10/01 05:21:14;;;;;;;3.08;2.72;;;;;;;10.60;100.00;99758.25;4888555;29;20044;-78
2022/10/01 05:23:43;;;;;;;2.83;2.63;;;;;;;10.62;100.00;99756.47;4873395;29;20395;-78
2022/10/01 05:26:11;;;;;;;2.90;2.70;;;;;;;10.62;100.00;99754.69;4868255;29;20183;-80
2022/10/01 05:28:43;;;;;;;3.25;2.95;;;;;;;10.63;100.00;99764.34;4893901;29;20516;-78
2022/10/01 05:31:12;;;;;;;3.30;3.00;;;;;;;10.64;100.00;99768.75;4850075;29;20270;-78
2022/10/01 05:33:43;;;;;;;3.75;3.40;;;;;;;10.66;100.00;99771.31;4893787;29;20048;-79
2022/10/01 05:36:12;;;;;;;3.47;3.17;;;;;;;10.66;100.00;99766.94;4886458;29;20267;-78
2022/10/01 05:38:41;;;;;;;3.40;3.20;;;;;;;10.68;100.00;99780.97;4872190;29;20047;-79
2022/10/01 05:41:09;;;;;;;3.80;3.50;;;;;;;10.69;100.00;99785.31;4884315;29;20258;-79
2022/10/01 05:43:38;;;;;;;3.50;3.17;;;;;;;10.71;100.00;99786.19;4876205;29;20037;-79
2022/10/01 05:46:06;;;;;;;3.30;3.10;;;;;;;10.74;100.00;99782.66;4827063;29;20499;-79
2022/10/01 05:48:36;;;;;;;3.20;2.90;;;;;;;10.77;100.00;99784.34;4887238;29;20326;-78
2022/10/01 05:51:06;;;;;;;4.15;3.78;;;;;;;10.78;100.00;99779.06;4894210;29;20048;-78
2022/10/01 05:53:39;;;;;;;3.17;2.97;;;;;;;10.79;100.00;99793.97;4884551;29;20282;-78
2022/10/01 05:56:07;;;;;;;5.13;4.07;;;;;;;10.81;100.00;99801.84;4855828;29;20051;-78
2022/10/01 05:58:36;;;;;;;3.90;3.60;;;;;;;10.82;100.00;99804.47;4907587;29;20040;-78
2022/10/01 06:01:04;;;;;;;4.25;3.85;;;;;;;10.82;100.00;99796.56;4865131;29;20044;-78
2022/10/01 06:03:33;;;;;;;3.58;3.38;;;;;;;10.84;100.00;99802.69;4890244;29;20078;-78
2022/10/01 06:06:04;;;;;;;4.60;4.18;;;;;;;10.86;100.00;99810.56;4882447;29;20048;-78
2022/10/01 06:08:37;;;;;;;4.28;3.88;;;;;;;10.86;100.00;99806.16;4889138;29;20113;-78
2022/10/01 06:11:05;;;;;;;4.60;4.20;;;;;;;10.88;100.00;99809.66;4890163;29;20052;-79
2022/10/01 06:13:34;;;;;;;4.30;4.00;;;;;;;10.88;100.00;99814.91;4853859;29;20048;-78
2022/10/01 06:16:03;;;;;;;5.10;4.55;;;;;;;10.90;100.00;99818.41;4862323;29;20044;-79
2022/10/01 06:18:31;;;;;;;4.85;4.10;;;;;;;10.91;100.00;99822.78;4877724;29;20146;-79
2022/10/01 06:21:01;;;;;;;4.38;3.83;;;;;;;10.91;100.00;99821.94;4893546;29;20051;-79
2022/10/01 06:23:32;;;;;;;5.38;4.70;;;;;;;10.90;100.00;99823.69;4906149;29;20056;-78
2022/10/01 06:26:04;;;;;;;4.78;4.38;;;;;;;10.91;100.00;99821.94;4882909;29;20379;-78
2022/10/01 06:28:32;;;;;;;5.03;4.60;;;;;;;10.92;100.00;99836.84;4907807;29;20264;-79
2022/10/01 06:31:03;;;;;;;5.38;4.32;;;;;;;10.93;100.00;99839.47;4911475;29;20048;-79
2022/10/01 06:33:32;;;;;;;8.32;5.10;;;;;;;10.98;100.00;99849.06;4864147;29;20517;-79
2022/10/01 06:36:02;;;;;;;5.53;4.93;;;;;;;11.03;100.00;99847.22;4893601;29;20052;-78
2022/10/01 06:38:31;;;;;;;5.88;5.20;;;;;;;11.05;100.00;99842.81;4889413;29;20167;-79
2022/10/01 06:41:01;;;;;;;8.32;5.13;;;;;;;11.09;100.00;99841.88;4906169;29;20044;-78
2022/10/01 06:43:31;;;;;;;6.15;5.65;;;;;;;11.12;100.00;99844.47;4868941;29;20040;-79
2022/10/01 06:46:01;;;;;;;5.13;4.65;;;;;;;11.19;100.00;99850.50;4877545;29;20418;-79
2022/10/01 06:48:31;;;;;;;6.30;5.20;;;;;;;11.20;100.00;99858.41;4878389;29;20394;-79
2022/10/01 06:50:59;;;;;;;5.32;4.82;;;;;;;11.26;100.00;99860.94;4893452;29;20418;-78
2022/10/01 06:53:28;;;;;;;5.10;4.70;;;;;;;11.30;100.00;99867.94;4891186;29;20047;-79
2022/10/01 06:56:03;;;;;;;4.90;4.32;;;;;;;11.35;100.00;99872.25;4872171;29;20044;-79
2022/10/01 06:58:32;;;;;;;4.97;4.53;;;;;;;11.38;100.00;99877.47;4871203;29;20061;-79
2022/10/01 07:01:02;;;;;;;6.45;4.93;;;;;;;11.39;100.00;99866.03;4844430;29;20056;-79
2022/10/01 07:03:32;;;;;;;6.75;5.10;;;;;;;11.42;100.00;99874.75;4845785;29;20743;-80
2022/10/01 07:06:03;;;;;;;6.78;4.68;;;;;;;11.50;100.00;99878.16;4829534;29;20056;-79
2022/10/01 07:08:32;;;;;;;5.25;4.75;;;;;;;11.60;100.00;99883.28;4870769;29;20265;-79
2022/10/01 07:11:01;;;;;;;10.10;5.22;;;;;;;11.73;100.00;99878.66;4854302;29;20376;-79
2022/10/01 07:13:30;;;;;;;7.60;5.13;;;;;;;11.84;100.00;99882.84;4864845;29;20049;-80
2022/10/01 07:15:58;;;;;;;9.70;4.63;;;;;;;11.97;100.00;99888.84;4849039;29;20057;-81
2022/10/01 07:18:27;;;;;;;5.88;4.53;;;;;;;12.04;100.00;99887.84;4872729;29;20037;-80
2022/10/01 07:20:58;;;;;;;8.82;5.07;;;;;;;12.14;100.00;99896.44;4837381;29;20061;-79
2022/10/01 07:23:32;;;;;;;7.82;4.43;;;;;;;12.25;100.00;99893.63;4870309;29;20044;-79
2022/10/01 07:26:03;;;;;;;4.88;4.15;;;;;;;12.43;100.00;99895.03;4871802;29;20569;-78
2022/10/01 07:28:32;;;;;;;6.43;4.35;;;;;;;12.57;100.00;99900.03;4851037;29;20044;-78
2022/10/01 07:31:10;;;;;;;8.68;4.10;;;;;;;12.65;100.00;99906.91;4864084;29;20616;-79
2022/10/01 07:33:39;;;;;;;4.78;3.60;;;;;;;12.72;100.00;99904.13;4860923;29;20047;-79
2022/10/01 07:36:10;;;;;;;6.15;4.30;;;;;;;12.85;100.00;99901.22;4863541;29;20052;-80
2022/10/01 07:38:38;;;;;;;9.68;3.80;;;;;;;13.07;100.00;99908.66;4837132;29;20280;-78
2022/10/01 07:41:08;;;;;;;5.53;4.22;;;;;;;13.27;100.00;99909.09;4863387;29;20041;-78
2022/10/01 07:43:38;;;;;;;5.95;3.30;;;;;;;13.50;100.00;99915.66;4844411;29;20057;-78
2022/10/01 07:46:06;;;;;;;3.95;3.13;;;;;;;13.65;100.00;99903.84;4857249;29;20040;-79
2022/10/01 07:48:35;;;;;;;5.57;3.20;;;;;;;13.83;100.00;99918.38;4862553;29;20578;-77
2022/10/01 07:51:04;;;;;;;8.15;3.33;;;;;;;14.04;100.00;99914.31;4862328;29;20494;-79
2022/10/01 07:53:33;;;;;;;8.55;3.05;;;;;;;14.08;100.00;99915.97;4834440;29;20060;-79
2022/10/01 07:56:02;;;;;;;7.05;3.13;;;;;;;14.01;100.00;99917.06;4869885;29;20048;-79
2022/10/01 07:58:33;;;;;;;10.93;3.03;;;;;;;13.93;100.00;99919.03;4864387;29;20298;-79
2022/10/01 08:01:03;;;;;;;10.23;3.67;;;;;;;13.95;100.00;99926.03;4860715;29;20041;-79
2022/10/01 08:03:31;;;;;;;4.90;2.75;;;;;;;14.17;100.00;99928.97;4853532;29;20529;-79
2022/10/01 08:06:05;;;;;;;7.60;2.90;;;;;;;14.47;100.00;99926.44;4874947;29;20052;-78
2022/10/01 08:08:34;;;;;;;5.63;2.85;;;;;;;14.77;100.00;99921.22;4864431;29;20532;-78
2022/10/01 08:11:02;;;;;;;9.32;2.70;;;;;;;15.05;100.00;99923.94;4893792;29;20410;-79
2022/10/01 08:13:31;;;;;;;8.27;2.58;;;;;;;15.25;100.00;99928.63;4848137;29;20656;-78
2022/10/01 08:16:05;;;;;;;10.70;2.90;;;;;;;15.46;100.00;99935.03;4883231;29;20059;-79
2022/10/01 08:18:34;;;;;;;10.32;2.97;;;;;;;15.64;100.00;99930.94;4865014;29;20052;-79
2022/10/01 08:21:02;;;;;;;12.57;2.80;;;;;;;15.76;100.00;99935.91;4886563;29;20040;-79
2022/10/01 08:23:32;;;;;;;8.87;2.43;;;;;;;15.86;100.00;99943.53;4830027;29;20056;-78
2022/10/01 08:26:05;;;;;;;6.57;2.10;;;;;;;15.98;100.00;99941.34;4893318;29;20292;-80
2022/10/01 08:28:34;;;;;;;7.95;2.10;;;;;;;16.16;100.00;99944.31;4860256;29;20402;-79
2022/10/01 08:31:06;;;;;;;6.38;2.42;;;;;;;16.31;100.00;99948.22;4874859;29;20040;-78
2022/10/01 08:33:36;;;;;;;5.85;1.83;;;;;;;16.48;100.00;99953.84;4885676;29;20040;-78
2022/10/01 08:36:08;;;;;;;5.40;1.80;;;;;;;16.55;100.00;99965.97;4859361;29;20041;-77
2022/10/01 08:38:38;;;;;;;8.32;2.08;;;;;;;16.66;100.00;99951.44;4841970;29;20056;-78
2022/10/01 08:41:38;;;;;;;11.73;1.98;;;;;;;16.67;100.00;99953.16;4877959;29;20048;-79
2022/10/01 08:44:18;;;;;;;7.90;1.92;;;;;;;16.73;100.00;99959.13;4840295;29;20045;-78
2022/10/01 08:46:49;;;;;;;9.30;2.10;;;;;;;16.76;100.00;99966.13;4864108;29;20040;-78
2022/10/01 08:49:33;;;;;;;8.65;1.83;;;;;;;16.74;100.00;99971.50;4849200;29;20407;-78
2022/10/01 08:52:12;;;;;;;7.97;2.05;;;;;;;16.76;100.00;99974.97;4882314;29;20052;-78
2022/10/01 08:55:03;;;;;;;7.07;2.08;;;;;;;16.78;100.00;99980.25;4863482;29;20048;-78
2022/10/01 08:57:55;;;;;;;9.68;2.35;;;;;;;16.79;100.00;99986.44;4856459;29;20080;-79
2022/10/01 09:00:24;;;;;;;9.00;1.88;;;;;;;16.75;100.00;99991.88;4876816;29;20063;-79
2022/10/01 09:03:00;;;;;;;9.93;1.75;;;;;;;16.68;100.00;99998.34;4893032;29;20045;-79
2022/10/01 09:06:02;;;;;;;9.70;1.90;;;;;;;16.69;100.00;99994.75;4853851;29;20060;-79
2022/10/01 09:08:56;;;;;;;8.55;2.25;;;;;;;16.69;100.00;99991.22;4882201;29;20053;-78
2022/10/01 09:11:42;;;;;;;8.95;1.80;;;;;;;16.56;100.00;99994.31;4855137;29;20510;-80
2022/10/01 09:14:13;;;;;;;9.93;2.25;;;;;;;16.51;100.00;99998.06;4871849;29;20538;-79
2022/10/01 09:17:18;;;;;;;9.50;2.25;;;;;;;16.46;100.00;99995.53;4858938;29;20358;-80
2022/10/01 09:20:09;;;;;;;7.07;2.10;;;;;;;16.44;100.00;99999.19;4877497;29;20056;-81
2022/10/01 09:22:48;;;;;;;10.00;2.30;;;;;;;16.45;100.00;100007.13;4859709;29;20407;-80
2022/10/01 09:25:23;;;;;;;10.70;1.88;;;;;;;16.35;100.00;100008.34;4852202;29;20522;-79
2022/10/01 09:28:32;;;;;;;12.88;2.00;;;;;;;16.15;100.00;100003.72;4865636;29;20057;-78
2022/10/01 09:31:18;;;;;;;8.18;2.17;;;;;;;15.98;100.00;100006.91;4837675;29;20521;-78
2022/10/01 09:33:56;;;;;;;10.50;2.35;;;;;;;15.86;100.00;100015.28;4878458;29;20071;-78
2022/10/01 09:36:29;;;;;;;11.13;2.15;;;;;;;15.70;100.00;100023.69;4862171;29;20056;-79
2022/10/01 09:39:38;;;;;;;9.38;2.38;;;;;;;15.55;100.00;100027.69;4875103;29;20482;-78
2022/10/01 09:42:07;;;;;;;10.53;2.60;;;;;;;15.40;100.00;100028.16;4792080;29;20035;-79
2022/10/01 09:44:36;;;;;;;6.75;1.58;;;;;;;15.35;100.00;100027.44;4854022;29;20333;-80
2022/10/01 09:47:21;;;;;;;6.57;1.80;;;;;;;15.40;100.00;100047.59;4850720;29;20044;-79
2022/10/01 09:49:50;;;;;;;6.68;1.75;;;;;;;15.51;100.00;100046.44;4881808;29;20071;-79
2022/10/01 09:52:33;;;;;;;4.88;1.70;;;;;;;15.65;100.00;100056.63;4878323;29;20055;-80
2022/10/01 09:55:01;;;;;;;6.93;2.35;;;;;;;15.77;100.00;100045.66;4890711;29;20045;-79
2022/10/01 09:57:36;;;;;;;8.23;1.88;;;;;;;15.87;100.00;100049.75;4841452;29;20057;-80
2022/10/01 10:00:17;;;;;;;9.65;1.90;;;;;;;15.94;100.00;100050.47;4870725;29;20057;-79
2022/10/01 10:02:48;;;;;;;6.72;2.05;;;;;;;16.06;100.00;100055.38;4846842;29;20188;-79
2022/10/01 10:05:18;;;;;;;8.88;1.88;;;;;;;16.17;100.00;100060.34;4875590;29;20386;-80
2022/10/01 10:08:09;;;;;;;7.10;1.95;;;;;;;16.25;100.00;100062.75;4882723;29;20048;-78
2022/10/01 10:10:59;;;;;;;8.95;2.10;;;;;;;16.28;100.00;100063.53;4871964;29;20049;-77
2022/10/01 10:13:37;;;;;;;6.43;2.30;;;;;;;16.33;100.00;100069.56;4836733;29;20726;-78
2022/10/01 10:16:29;;;;;;;6.43;1.70;;;;;;;16.25;100.00;100079.56;4885559;29;20052;-79
2022/10/01 10:19:13;;;;;;;2.95;1.15;;;;;;;16.11;100.00;100105.72;4881232;29;20064;-80
2022/10/01 10:22:07;;;;;;;3.95;1.23;;;;;;;15.75;100.00;100105.94;4881607;29;20056;-78
2022/10/01 10:24:36;;;;;;;9.40;1.90;;;;;;;15.42;100.00;100105.97;4863554;29;20052;-80
2022/10/01 10:27:19;;;;;;;5.15;1.48;;;;;;;15.18;100.00;100116.38;4858343;29;20063;-79
2022/10/01 10:29:48;;;;;;;4.05;1.38;;;;;;;14.98;100.00;100129.28;4839565;29;20823;-79
2022/10/01 10:32:25;;;;;;;4.57;1.15;;;;;;;14.79;100.00;100139.50;4875742;29;20052;-79
2022/10/01 10:35:08;;;;;;;6.20;1.40;;;;;;;14.70;100.00;100135.31;4877564;29;20071;-79
2022/10/01 10:37:48;;;;;;;6.68;1.88;;;;;;;14.72;100.00;100145.88;4879497;29;20040;-78
2022/10/01 10:40:21;;;;;;;3.65;1.40;;;;;;;14.69;100.00;100152.13;4893377;29;20048;-79
2022/10/01 10:42:58;;;;;;;5.30;1.17;;;;;;;14.64;100.00;100154.03;4873534;29;20049;-79
2022/10/01 10:45:38;;;;;;;3.92;1.40;;;;;;;14.61;100.00;100154.97;4824832;29;20044;-80
2022/10/01 10:48:15;;;;;;;11.02;1.50;;;;;;;14.54;100.00;100171.03;4861108;29;20041;-80
2022/10/01 10:50:45;;;;;;;5.32;1.13;;;;;;;14.43;100.00;100156.25;4879784;29;20172;-81
2022/10/01 10:53:26;;;;;;;4.65;1.50;;;;;;;14.29;100.00;100168.97;4881806;29;20047;-79
2022/10/01 10:56:04;;;;;;;4.72;1.23;;;;;;;14.20;100.00;100172.69;4888812;29;20063;-79
2022/10/01 10:58:39;;;;;;;5.43;1.10;;;;;;;14.11;100.00;100174.69;4886550;29;20060;-80
2022/10/01 11:01:12;;;;;;;3.28;0.70;;;;;;;13.90;100.00;100174.22;4900760;29;20059;-79
2022/10/01 11:03:46;;;;;;;1.67;0.70;;;;;;;13.73;100.00;100176.38;4911798;29;20044;-80
2022/10/01 11:06:17;;;;;;;3.60;0.98;;;;;;;13.58;100.00;100175.75;4858705;29;20052;-80
2022/10/01 11:08:56;;;;;;;2.72;0.85;;;;;;;13.44;100.00;100186.63;4881179;29;20036;-79
2022/10/01 11:11:54;;;;;;;1.45;0.93;;;;;;;13.33;100.00;100180.66;4889158;29;20050;-79
2022/10/01 11:14:45;;;;;;;1.50;1.20;;;;;;;13.29;100.00;100193.94;4905523;29;20066;-80
2022/10/01 11:17:17;;;;;;;5.10;1.20;;;;;;;13.25;100.00;100201.03;4905309;29;20044;-79
2022/10/01 11:20:15;;;;;;;4.10;1.00;;;;;;;13.26;100.00;100194.88;4895548;29;20460;-80
2022/10/01 11:23:05;;;;;;;4.35;1.52;;;;;;;13.24;100.00;100202.84;4887624;29;20052;-79
2022/10/01 11:26:09;;;;;;;3.17;1.30;;;;;;;13.27;100.00;100200.13;4883235;29;20028;-81
2022/10/01 11:28:56;;;;;;;6.50;1.50;;;;;;;13.35;100.00;100217.69;4864938;29;20062;-81
2022/10/01 11:31:34;;;;;;;4.90;1.67;;;;;;;13.38;100.00;100210.56;4867431;29;20059;-80
2022/10/01 11:34:37;;;;;;;4.28;1.23;;;;;;;13.39;100.00;100204.34;4897563;29;20052;-80
2022/10/01 11:37:37;;;;;;;4.03;1.35;;;;;;;13.40;100.00;100215.81;4883640;29;20059;-79
2022/10/01 11:40:42;;;;;;;3.72;1.42;;;;;;;13.39;100.00;100222.03;4870901;29;20040;-80
2022/10/01 11:43:23;;;;;;;5.18;1.33;;;;;;;13.46;100.00;100223.66;4913503;29;20055;-81
2022/10/01 11:46:06;;;;;;;4.90;1.27;;;;;;;13.62;100.00;100225.09;4876464;29;20613;-80
2022/10/01 11:48:43;;;;;;;4.43;1.50;;;;;;;13.80;100.00;100230.94;4872706;29;20049;-79
2022/10/01 11:51:18;;;;;;;4.93;1.20;;;;;;;13.94;100.00;100231.53;4914149;29;20056;-80
2022/10/01 11:54:11;;;;;;;5.88;1.60;;;;;;;14.10;100.00;100239.16;4872424;29;20720;-80